地図

経路データ

SID SEASON NUMBER BASIN SUBBASIN NAME ISO_TIME NATURE LAT LON WMO_WIND WMO_PRES WMO_AGENCY TRACK_TYPE DIST2LAND LANDFALL IFLAG USA_AGENCY USA_ATCF_ID USA_LAT USA_LON USA_RECORD USA_STATUS USA_WIND USA_PRES USA_SSHS USA_R34_NE USA_R34_SE USA_R34_SW USA_R34_NW USA_R50_NE USA_R50_SE USA_R50_SW USA_R50_NW USA_R64_NE USA_R64_SE USA_R64_SW USA_R64_NW USA_POCI USA_ROCI USA_RMW USA_EYE TOKYO_LAT TOKYO_LON TOKYO_GRADE TOKYO_WIND TOKYO_PRES TOKYO_R50_DIR TOKYO_R50_LONG TOKYO_R50_SHORT TOKYO_R30_DIR TOKYO_R30_LONG TOKYO_R30_SHORT TOKYO_LAND CMA_LAT CMA_LON CMA_CAT CMA_WIND CMA_PRES HKO_LAT HKO_LON HKO_CAT HKO_WIND HKO_PRES NEWDELHI_LAT NEWDELHI_LON NEWDELHI_GRADE NEWDELHI_WIND NEWDELHI_PRES NEWDELHI_CI NEWDELHI_DP NEWDELHI_POCI REUNION_LAT REUNION_LON REUNION_TYPE REUNION_WIND REUNION_PRES REUNION_TNUM REUNION_CI REUNION_RMW REUNION_R34_NE REUNION_R34_SE REUNION_R34_SW REUNION_R34_NW REUNION_R50_NE REUNION_R50_SE REUNION_R50_SW REUNION_R50_NW REUNION_R64_NE REUNION_R64_SE REUNION_R64_SW REUNION_R64_NW BOM_LAT BOM_LON BOM_TYPE BOM_WIND BOM_PRES BOM_TNUM BOM_CI BOM_RMW BOM_R34_NE BOM_R34_SE BOM_R34_SW BOM_R34_NW BOM_R50_NE BOM_R50_SE BOM_R50_SW BOM_R50_NW BOM_R64_NE BOM_R64_SE BOM_R64_SW BOM_R64_NW BOM_ROCI BOM_POCI BOM_EYE BOM_POS_METHOD BOM_PRES_METHOD NADI_LAT NADI_LON NADI_CAT NADI_WIND NADI_PRES WELLINGTON_LAT WELLINGTON_LON WELLINGTON_WIND WELLINGTON_PRES DS824_LAT DS824_LON DS824_STAGE DS824_WIND DS824_PRES TD9636_LAT TD9636_LON TD9636_STAGE TD9636_WIND TD9636_PRES TD9635_LAT TD9635_LON TD9635_WIND TD9635_PRES TD9635_ROCI NEUMANN_LAT NEUMANN_LON NEUMANN_CLASS NEUMANN_WIND NEUMANN_PRES MLC_LAT MLC_LON MLC_CLASS MLC_WIND MLC_PRES USA_GUST BOM_GUST BOM_GUST_PER REUNION_GUST REUNION_GUST_PER USA_SEAHGT USA_SEARAD_NE USA_SEARAD_SE USA_SEARAD_SW USA_SEARAD_NW STORM_SPEED STORM_DIR
1934181N21089 1934 27 NI BB NOT_NAMED 1934-06-30 00:00:00 TS 20.8000 88.6000 main 90 90 _________O____ -1 20.8000 88.6000 TC 30 0 0
1934181N21089 1934 27 NI BB NOT_NAMED 1934-06-30 03:00:00 TS 20.8000 88.6000 main 90 90 _________PO___ -1 20.8000 88.6000 TC 30 20.8000 88.6000 1 0 0
1934181N21089 1934 27 NI BB NOT_NAMED 1934-06-30 06:00:00 TS 20.8013 88.5938 main 90 90 _________OP___ -1 20.8000 88.6000 TC 30 20.8032 88.5844 1 0 0
1934181N21089 1934 27 NI BB NOT_NAMED 1934-06-30 09:00:00 TS 20.8022 88.5893 main 90 90 _________PP___ -1 20.8000 88.6000 TC 30 20.8051 88.5750 1 0 0
1934181N21089 1934 27 NI BB NOT_NAMED 1934-06-30 12:00:00 TS 20.8022 88.5891 main 90 90 _________OP___ -1 20.8000 88.6000 TC 30 20.8044 88.5782 1 0 0
1934181N21089 1934 27 NI BB NOT_NAMED 1934-06-30 15:00:00 TS 20.8000 88.6000 main 90 90 _________PO___ -1 20.8000 88.6000 TC 30 20.8000 88.6000 1 0 99
1934181N21089 1934 27 NI BB NOT_NAMED 1934-06-30 18:00:00 TS 20.7959 88.6203 main 90 90 _________OP___ -1 20.8000 88.6000 TC 30 20.7918 88.6406 1 1 102
1934181N21089 1934 27 NI BB NOT_NAMED 1934-06-30 21:00:00 TS 20.7886 88.6524 main 91 90 _________PP___ -1 20.7925 88.6300 TC 30 20.7848 88.6749 1 0 0
1934181N21089 1934 27 NI BB NOT_NAMED 1934-07-01 00:00:00 TS 20.7927 88.6359 main 90 89 _________OP___ -1 20.8000 88.6000 TC 30 20.7854 88.6718 1 1 285
1934181N21089 1934 27 NI BB NOT_NAMED 1934-07-01 03:00:00 TS 20.8212 88.5225 main 89 78 _________PO___ -1 20.8425 88.4450 TC 30 20.8000 88.6000 1 3 283
1934181N21089 1934 27 NI BB NOT_NAMED 1934-07-01 06:00:00 TS 20.8660 88.3029 main 78 78 _________OP___ -1 20.9000 88.2000 TC 30 20.8319 88.4057 1 5 281
1934181N21089 1934 27 NI BB NOT_NAMED 1934-07-01 09:00:00 TS 20.9103 88.0188 main 80 73 _________PP___ -1 20.9426 87.8925 TC 30 20.8780 88.1451 1 5 281
1934181N21089 1934 27 NI BB NOT_NAMED 1934-07-01 12:00:00 TS 20.9675 87.7310 main 73 56 _________OP___ -1 21.0000 87.6000 TC 30 20.9351 87.8620 1 5 287
1934181N21089 1934 27 NI BB NOT_NAMED 1934-07-01 15:00:00 TS 21.0500 87.5137 main 56 53 _________PO___ -1 21.0999 87.4275 TC 30 21.0000 87.6000 1 4 298
1934181N21089 1934 27 NI BB NOT_NAMED 1934-07-01 18:00:00 TS 21.1334 87.3990 main 53 38 _________OP___ -1 21.2000 87.3000 TC 30 21.0667 87.4980 1 2 308
1934181N21089 1934 27 NI BB NOT_NAMED 1934-07-01 21:00:00 TS 21.1951 87.3146 main 38 23 _________PP___ -1 21.2496 87.2173 TC 30 21.1407 87.4119 1 3 297
1934181N21089 1934 27 NI BB NOT_NAMED 1934-07-02 00:00:00 TS 21.2597 87.1349 main 15 0 _________OP___ -1 21.3000 87.0000 TC 30 21.2194 87.2698 1 6 286
1934181N21089 1934 27 NI BB NOT_NAMED 1934-07-02 03:00:00 TS 21.3501 86.7376 main 0 0 _________PO___ -1 21.4002 86.4752 TC 30 21.3000 87.0000 1 9 281
1934181N21089 1934 27 NI BB NOT_NAMED 1934-07-02 06:00:00 TS 21.4379 86.1599 main 0 0 _________OP___ -1 21.5000 85.8000 TC 30 21.3758 86.5197 1 11 278
1934181N21089 1934 27 NI BB NOT_NAMED 1934-07-02 09:00:00 TS 21.5041 85.5361 main 0 0 _________PP___ -1 21.5572 85.1649 TC 30 21.4510 85.9074 1 12 276
1934181N21089 1934 27 NI BB NOT_NAMED 1934-07-02 12:00:00 TS 21.5628 84.8582 main 0 0 _________OP___ -1 21.6000 84.5000 TC 30 21.5256 85.2164 1 13 275
1934181N21089 1934 27 NI BB NOT_NAMED 1934-07-02 15:00:00 TS 21.6212 84.1499 main 0 0 _________PO___ -1 21.6424 83.7999 TC 30 21.6000 84.5000 1 13 275
1934181N21089 1934 27 NI BB NOT_NAMED 1934-07-02 18:00:00 TS 21.6759 83.4310 main 0 0 _________OP___ -1 21.7000 83.1000 TC 30 21.6518 83.7620 1 14 275
1934181N21089 1934 27 NI BB NOT_NAMED 1934-07-02 21:00:00 TS 21.7460 82.7024 main 0 0 _________PP___ -1 21.7852 82.3826 TC 30 21.7069 83.0222 1 13 277
1934181N21089 1934 27 NI BB NOT_NAMED 1934-07-03 00:00:00 TS 21.8416 82.0732 main 0 0 _________OP___ -1 21.9000 81.8000 TC 30 21.7832 82.3464 1 10 282
1934181N21089 1934 27 NI BB NOT_NAMED 1934-07-03 03:00:00 TS 21.9598 81.6374 main 0 0 _________PO___ -1 22.0196 81.4748 TC 30 21.9000 81.8000 1 7 294
1934181N21089 1934 27 NI BB NOT_NAMED 1934-07-03 06:00:00 TS 22.1361 81.3735 main 0 0 _________OP___ -1 22.2000 81.3000 TC 30 22.0721 81.4471 1 6 315
1934181N21089 1934 27 NI BB NOT_NAMED 1934-07-03 09:00:00 TS 22.3865 81.1774 main 0 0 _________PP___ -1 22.4850 81.1275 TC 30 22.2881 81.2273 1 6 331
1934181N21089 1934 27 NI BB NOT_NAMED 1934-07-03 12:00:00 TS 22.6676 81.0469 main 0 0 _________OP___ -1 22.8000 81.0000 TC 30 22.5352 81.0938 1 6 338
1934181N21089 1934 27 NI BB NOT_NAMED 1934-07-03 15:00:00 TS 22.9250 80.9462 main 0 0 _________PO___ -1 23.0500 80.8924 TC 30 22.8000 81.0000 1 5 341
1934181N21089 1934 27 NI BB NOT_NAMED 1934-07-03 18:00:00 TS 23.1693 80.8610 main 0 0 _________OP___ -1 23.3000 80.8000 TC 30 23.0713 80.9068 1 5 342
1934181N21089 1934 27 NI BB NOT_NAMED 1934-07-03 21:00:00 TS 23.4425 80.7658 main 0 0 _________PP___ -1 23.5875 80.7026 TC 30 23.3458 80.8080 1 6 342
1934181N21089 1934 27 NI BB NOT_NAMED 1934-07-04 00:00:00 TS 23.7149 80.6701 main 0 0 _________OP___ -1 23.9000 80.6000 TC 30 23.6224 80.7051 1 5 341
1934181N21089 1934 27 NI BB NOT_NAMED 1934-07-04 03:00:00 NR 23.9000 80.6000 main 0 __________O___ -1 TC 23.9000 80.6000 1 4 339

IBTrACS Databaseについて

本データベースは、米国NOAAが公開する1842年以降の世界の熱帯低気圧のベストトラックデータアーカイブInternational Best Track Archive for Climate Stewardship (IBTrACS)を、ウェブで閲覧しやすい形式に変換したものです。

最終更新日:2021-10-21